sensor_id;sensor_type;location;lat;lon;timestamp;pressure;altitude;pressure_sealevel;temperature;humidity
23164;BME280;31429;42.674;23.350;2022-08-01T03:01:01;94565.00;;;16.90;100.00
23164;BME280;31429;42.674;23.350;2022-08-01T03:02:02;94622.31;;;17.22;100.00
23164;BME280;31429;42.674;23.350;2022-08-01T03:03:06;94614.34;;;17.25;100.00
23164;BME280;31429;42.674;23.350;2022-08-01T03:04:09;94612.47;;;17.40;100.00
23164;BME280;31429;42.674;23.350;2022-08-01T03:05:11;94613.13;;;17.43;100.00
23164;BME280;31429;42.674;23.350;2022-08-01T03:06:13;94605.38;;;17.31;100.00
23164;BME280;31429;42.674;23.350;2022-08-01T03:07:15;94606.75;;;17.09;100.00
23164;BME280;31429;42.674;23.350;2022-08-01T03:08:17;94626.00;;;17.05;100.00
23164;BME280;31429;42.674;23.350;2022-08-01T03:09:19;94628.25;;;17.10;100.00
23164;BME280;31429;42.674;23.350;2022-08-01T03:10:20;94622.59;;;17.17;100.00
23164;BME280;31429;42.674;23.350;2022-08-01T03:11:39;94622.00;;;17.27;100.00
23164;BME280;31429;42.674;23.350;2022-08-01T03:12:42;94624.19;;;17.33;100.00
23164;BME280;31429;42.674;23.350;2022-08-01T03:13:47;94602.94;;;17.15;100.00
23164;BME280;31429;42.674;23.350;2022-08-01T03:14:50;94600.69;;;17.10;100.00
23164;BME280;31429;42.674;23.350;2022-08-01T03:15:53;94624.97;;;17.08;100.00
23164;BME280;31429;42.674;23.350;2022-08-01T03:16:56;94624.75;;;17.11;100.00
23164;BME280;31429;42.674;23.350;2022-08-01T03:17:59;94572.09;;;16.74;100.00
23164;BME280;31429;42.674;23.350;2022-08-01T03:19:01;94621.41;;;16.96;100.00
23164;BME280;31429;42.674;23.350;2022-08-01T03:20:04;94624.00;;;16.96;100.00
23164;BME280;31429;42.674;23.350;2022-08-01T03:21:06;94628.06;;;16.86;100.00
23164;BME280;31429;42.674;23.350;2022-08-01T03:22:11;94619.91;;;16.80;100.00
23164;BME280;31429;42.674;23.350;2022-08-01T03:23:14;94609.66;;;16.78;100.00
23164;BME280;31429;42.674;23.350;2022-08-01T03:24:16;94621.88;;;16.89;100.00
23164;BME280;31429;42.674;23.350;2022-08-01T03:25:20;94602.31;;;16.72;100.00
23164;BME280;31429;42.674;23.350;2022-08-01T03:26:21;94624.44;;;16.76;100.00
23164;BME280;31429;42.674;23.350;2022-08-01T03:27:23;94622.69;;;16.77;100.00
23164;BME280;31429;42.674;23.350;2022-08-01T03:28:25;94577.31;;;16.46;100.00
23164;BME280;31429;42.674;23.350;2022-08-01T03:29:27;94594.97;;;16.52;100.00
23164;BME280;31429;42.674;23.350;2022-08-01T03:30:31;94598.69;;;16.48;100.00
23164;BME280;31429;42.674;23.350;2022-08-01T03:31:34;94601.47;;;16.45;100.00
23164;BME280;31429;42.674;23.350;2022-08-01T03:32:37;94592.06;;;16.44;100.00
23164;BME280;31429;42.674;23.350;2022-08-01T03:33:38;94622.38;;;16.69;100.00
23164;BME280;31429;42.674;23.350;2022-08-01T03:34:39;94620.31;;;16.74;100.00
23164;BME280;31429;42.674;23.350;2022-08-01T03:35:46;94590.31;;;16.44;100.00
23164;BME280;31429;42.674;23.350;2022-08-01T03:36:59;94622.38;;;16.69;100.00
23164;BME280;31429;42.674;23.350;2022-08-01T03:38:03;94631.66;;;16.71;100.00
23164;BME280;31429;42.674;23.350;2022-08-01T03:39:09;94602.63;;;16.67;100.00
23164;BME280;31429;42.674;23.350;2022-08-01T03:40:17;94581.44;;;16.62;100.00
23164;BME280;31429;42.674;23.350;2022-08-01T03:41:21;94632.22;;;16.89;100.00
23164;BME280;31429;42.674;23.350;2022-08-01T03:42:25;94614.44;;;16.84;100.00
23164;BME280;31429;42.674;23.350;2022-08-01T03:43:33;94623.16;;;16.96;100.00
23164;BME280;31429;42.674;23.350;2022-08-01T03:44:37;94582.69;;;16.70;100.00
23164;BME280;31429;42.674;23.350;2022-08-01T03:45:41;94583.72;;;16.67;100.00
23164;BME280;31429;42.674;23.350;2022-08-01T03:46:47;94623.25;;;16.94;100.00
23164;BME280;31429;42.674;23.350;2022-08-01T03:47:54;94623.69;;;17.01;100.00
23164;BME280;31429;42.674;23.350;2022-08-01T03:48:58;94586.94;;;16.71;100.00
23164;BME280;31429;42.674;23.350;2022-08-01T03:50:02;94577.50;;;16.57;100.00
23164;BME280;31429;42.674;23.350;2022-08-01T03:51:05;94625.94;;;16.93;100.00
23164;BME280;31429;42.674;23.350;2022-08-01T03:52:09;94584.25;;;16.72;100.00
23164;BME280;31429;42.674;23.350;2022-08-01T03:53:10;94592.25;;;16.94;100.00
23164;BME280;31429;42.674;23.350;2022-08-01T03:54:12;94631.09;;;17.19;100.00
23164;BME280;31429;42.674;23.350;2022-08-01T03:55:15;94607.34;;;17.00;100.00
23164;BME280;31429;42.674;23.350;2022-08-01T03:56:21;94610.00;;;16.86;100.00
23164;BME280;31429;42.674;23.350;2022-08-01T03:57:23;94593.78;;;16.84;100.00
23164;BME280;31429;42.674;23.350;2022-08-01T03:58:26;94633.22;;;17.13;100.00
23164;BME280;31429;42.674;23.350;2022-08-01T03:59:28;94536.53;;;16.65;100.00
23164;BME280;31429;42.674;23.350;2022-08-01T04:00:30;94632.53;;;17.23;100.00
23164;BME280;31429;42.674;23.350;2022-08-01T04:01:31;94629.94;;;17.23;100.00
23164;BME280;31429;42.674;23.350;2022-08-01T04:02:32;94617.09;;;17.09;100.00
23164;BME280;31429;42.674;23.350;2022-08-01T04:03:35;94626.84;;;17.18;100.00
23164;BME280;31429;42.674;23.350;2022-08-01T04:04:36;94598.13;;;16.84;100.00
23164;BME280;31429;42.674;23.350;2022-08-01T04:05:36;94636.72;;;16.99;100.00
23164;BME280;31429;42.674;23.350;2022-08-01T04:06:38;94612.69;;;16.85;100.00
23164;BME280;31429;42.674;23.350;2022-08-01T04:07:38;94628.38;;;17.08;100.00
23164;BME280;31429;42.674;23.350;2022-08-01T04:08:40;94639.31;;;17.12;100.00
23164;BME280;31429;42.674;23.350;2022-08-01T04:09:41;94626.41;;;17.12;100.00
23164;BME280;31429;42.674;23.350;2022-08-01T04:10:42;94633.69;;;17.32;100.00
23164;BME280;31429;42.674;23.350;2022-08-01T04:11:43;94635.09;;;17.23;100.00
23164;BME280;31429;42.674;23.350;2022-08-01T04:12:44;94637.81;;;17.35;100.00
23164;BME280;31429;42.674;23.350;2022-08-01T04:13:45;94635.34;;;17.33;100.00
23164;BME280;31429;42.674;23.350;2022-08-01T04:14:46;94632.84;;;17.32;100.00
23164;BME280;31429;42.674;23.350;2022-08-01T04:15:47;94641.94;;;17.24;100.00
23164;BME280;31429;42.674;23.350;2022-08-01T04:16:47;94640.78;;;17.16;100.00
23164;BME280;31429;42.674;23.350;2022-08-01T04:17:48;94640.34;;;17.09;100.00
23164;BME280;31429;42.674;23.350;2022-08-01T04:18:51;94634.91;;;17.27;100.00
23164;BME280;31429;42.674;23.350;2022-08-01T04:19:51;94633.91;;;17.42;100.00
23164;BME280;31429;42.674;23.350;2022-08-01T04:20:52;94634.81;;;17.41;100.00
23164;BME280;31429;42.674;23.350;2022-08-01T04:21:53;94640.78;;;17.29;100.00
23164;BME280;31429;42.674;23.350;2022-08-01T04:22:53;94636.13;;;17.21;100.00
23164;BME280;31429;42.674;23.350;2022-08-01T04:23:56;94641.50;;;17.18;100.00
23164;BME280;31429;42.674;23.350;2022-08-01T04:25:00;94642.53;;;17.15;100.00
23164;BME280;31429;42.674;23.350;2022-08-01T04:26:04;94637.69;;;17.23;100.00
23164;BME280;31429;42.674;23.350;2022-08-01T04:27:09;94622.97;;;17.11;100.00
23164;BME280;31429;42.674;23.350;2022-08-01T04:28:13;94612.66;;;17.11;100.00
23164;BME280;31429;42.674;23.350;2022-08-01T04:29:17;94627.16;;;17.27;100.00
23164;BME280;31429;42.674;23.350;2022-08-01T04:30:21;94614.78;;;17.44;100.00
23164;BME280;31429;42.674;23.350;2022-08-01T04:31:24;94608.47;;;17.48;100.00
23164;BME280;31429;42.674;23.350;2022-08-01T04:32:28;94642.44;;;17.69;100.00
23164;BME280;31429;42.674;23.350;2022-08-01T04:33:32;94637.66;;;17.63;100.00
23164;BME280;31429;42.674;23.350;2022-08-01T04:34:39;94635.94;;;17.76;100.00
23164;BME280;31429;42.674;23.350;2022-08-01T04:35:43;94637.28;;;17.82;100.00
23164;BME280;31429;42.674;23.350;2022-08-01T04:36:46;94629.78;;;18.02;100.00
23164;BME280;31429;42.674;23.350;2022-08-01T04:37:48;94635.50;;;18.07;100.00
23164;BME280;31429;42.674;23.350;2022-08-01T04:38:56;94640.13;;;18.02;100.00
23164;BME280;31429;42.674;23.350;2022-08-01T04:40:00;94644.19;;;18.06;100.00
23164;BME280;31429;42.674;23.350;2022-08-01T04:41:01;94632.69;;;18.10;100.00
23164;BME280;31429;42.674;23.350;2022-08-01T04:42:04;94633.25;;;17.90;100.00
23164;BME280;31429;42.674;23.350;2022-08-01T04:43:05;94636.75;;;18.02;100.00
23164;BME280;31429;42.674;23.350;2022-08-01T04:44:06;94576.75;;;17.84;100.00
23164;BME280;31429;42.674;23.350;2022-08-01T04:45:08;94602.06;;;18.04;100.00
23164;BME280;31429;42.674;23.350;2022-08-01T04:46:09;94631.16;;;18.08;100.00
23164;BME280;31429;42.674;23.350;2022-08-01T04:47:11;94595.97;;;17.93;100.00
23164;BME280;31429;42.674;23.350;2022-08-01T04:48:13;94627.19;;;18.15;100.00
23164;BME280;31429;42.674;23.350;2022-08-01T04:49:14;94628.25;;;18.00;100.00
23164;BME280;31429;42.674;23.350;2022-08-01T04:50:18;94629.00;;;18.02;100.00
23164;BME280;31429;42.674;23.350;2022-08-01T04:51:22;94619.03;;;18.08;100.00
23164;BME280;31429;42.674;23.350;2022-08-01T04:52:23;94627.69;;;18.20;100.00
23164;BME280;31429;42.674;23.350;2022-08-01T04:53:23;94630.81;;;18.12;100.00
23164;BME280;31429;42.674;23.350;2022-08-01T04:54:24;94645.38;;;18.51;100.00
23164;BME280;31429;42.674;23.350;2022-08-01T04:55:25;94638.34;;;18.41;100.00
23164;BME280;31429;42.674;23.350;2022-08-01T04:56:26;94630.56;;;18.41;100.00
23164;BME280;31429;42.674;23.350;2022-08-01T04:57:27;94636.63;;;18.65;100.00
23164;BME280;31429;42.674;23.350;2022-08-01T04:58:28;94596.91;;;18.53;100.00
23164;BME280;31429;42.674;23.350;2022-08-01T04:59:29;94628.75;;;18.66;100.00
23164;BME280;31429;42.674;23.350;2022-08-01T05:00:42;94632.91;;;18.92;100.00
23164;BME280;31429;42.674;23.350;2022-08-01T05:01:42;94620.66;;;18.94;100.00
23164;BME280;31429;42.674;23.350;2022-08-01T05:02:48;94631.56;;;19.11;100.00
23164;BME280;31429;42.674;23.350;2022-08-01T05:03:48;94626.50;;;19.09;100.00
23164;BME280;31429;42.674;23.350;2022-08-01T05:04:49;94600.31;;;19.01;100.00
23164;BME280;31429;42.674;23.350;2022-08-01T05:05:51;94596.56;;;19.05;100.00
23164;BME280;31429;42.674;23.350;2022-08-01T05:06:52;94625.72;;;19.43;100.00
23164;BME280;31429;42.674;23.350;2022-08-01T05:07:52;94558.66;;;19.04;100.00
23164;BME280;31429;42.674;23.350;2022-08-01T05:08:53;94627.47;;;19.19;100.00
23164;BME280;31429;42.674;23.350;2022-08-01T05:09:54;94634.97;;;19.11;100.00
23164;BME280;31429;42.674;23.350;2022-08-01T05:10:55;94602.75;;;18.91;100.00
23164;BME280;31429;42.674;23.350;2022-08-01T05:11:56;94630.00;;;19.32;100.00
23164;BME280;31429;42.674;23.350;2022-08-01T05:12:58;94620.78;;;19.52;100.00
23164;BME280;31429;42.674;23.350;2022-08-01T05:13:59;94627.84;;;19.49;100.00
23164;BME280;31429;42.674;23.350;2022-08-01T05:15:00;94625.59;;;19.56;100.00
23164;BME280;31429;42.674;23.350;2022-08-01T05:16:02;94599.34;;;19.61;100.00
23164;BME280;31429;42.674;23.350;2022-08-01T05:17:05;94591.81;;;19.69;100.00
23164;BME280;31429;42.674;23.350;2022-08-01T05:18:06;94617.06;;;19.89;100.00
23164;BME280;31429;42.674;23.350;2022-08-01T05:19:07;94617.91;;;20.00;100.00
23164;BME280;31429;42.674;23.350;2022-08-01T05:20:09;94617.75;;;20.02;100.00
23164;BME280;31429;42.674;23.350;2022-08-01T05:21:11;94597.13;;;19.89;100.00
23164;BME280;31429;42.674;23.350;2022-08-01T05:22:12;94626.97;;;20.17;100.00
23164;BME280;31429;42.674;23.350;2022-08-01T05:23:13;94589.44;;;19.88;100.00
23164;BME280;31429;42.674;23.350;2022-08-01T05:24:13;94617.06;;;20.00;100.00
23164;BME280;31429;42.674;23.350;2022-08-01T05:25:14;94623.19;;;20.10;100.00
23164;BME280;31429;42.674;23.350;2022-08-01T05:26:15;94595.09;;;19.93;100.00
23164;BME280;31429;42.674;23.350;2022-08-01T05:27:16;94620.97;;;20.17;100.00
23164;BME280;31429;42.674;23.350;2022-08-01T05:28:16;94620.13;;;20.38;100.00
23164;BME280;31429;42.674;23.350;2022-08-01T05:29:17;94617.63;;;20.59;100.00
23164;BME280;31429;42.674;23.350;2022-08-01T05:30:18;94614.41;;;20.78;100.00
23164;BME280;31429;42.674;23.350;2022-08-01T05:31:18;94614.63;;;20.75;100.00
23164;BME280;31429;42.674;23.350;2022-08-01T05:32:19;94618.00;;;20.66;100.00
23164;BME280;31429;42.674;23.350;2022-08-01T05:33:20;94560.75;;;20.45;100.00
23164;BME280;31429;42.674;23.350;2022-08-01T05:34:22;94586.97;;;20.85;100.00
23164;BME280;31429;42.674;23.350;2022-08-01T05:35:23;94593.13;;;20.84;100.00
23164;BME280;31429;42.674;23.350;2022-08-01T05:36:25;94619.69;;;20.87;100.00
23164;BME280;31429;42.674;23.350;2022-08-01T05:37:25;94607.66;;;20.75;100.00
23164;BME280;31429;42.674;23.350;2022-08-01T05:38:26;94619.78;;;21.08;100.00
23164;BME280;31429;42.674;23.350;2022-08-01T05:39:27;94589.03;;;21.13;98.93
23164;BME280;31429;42.674;23.350;2022-08-01T05:40:28;94574.94;;;21.15;100.00
23164;BME280;31429;42.674;23.350;2022-08-01T05:41:28;94613.94;;;21.47;98.42
23164;BME280;31429;42.674;23.350;2022-08-01T05:42:29;94612.66;;;21.62;95.66
23164;BME280;31429;42.674;23.350;2022-08-01T05:43:30;94611.69;;;21.63;100.00
23164;BME280;31429;42.674;23.350;2022-08-01T05:44:31;94617.72;;;21.85;86.44
23164;BME280;31429;42.674;23.350;2022-08-01T05:45:31;94617.16;;;21.81;94.16
23164;BME280;31429;42.674;23.350;2022-08-01T05:46:32;94608.47;;;21.92;90.24
23164;BME280;31429;42.674;23.350;2022-08-01T05:47:34;94613.34;;;21.85;94.50
23164;BME280;31429;42.674;23.350;2022-08-01T05:48:34;94613.41;;;21.74;99.77
23164;BME280;31429;42.674;23.350;2022-08-01T05:49:35;94610.88;;;21.63;100.00
23164;BME280;31429;42.674;23.350;2022-08-01T05:50:36;94600.28;;;21.55;96.19
23164;BME280;31429;42.674;23.350;2022-08-01T05:51:38;94600.91;;;21.47;100.00
23164;BME280;31429;42.674;23.350;2022-08-01T05:52:38;94623.63;;;21.66;100.00
23164;BME280;31429;42.674;23.350;2022-08-01T05:53:39;94580.28;;;21.55;97.88
23164;BME280;31429;42.674;23.350;2022-08-01T05:54:40;94591.78;;;21.73;93.94
23164;BME280;31429;42.674;23.350;2022-08-01T05:55:41;94622.84;;;22.16;88.50
23164;BME280;31429;42.674;23.350;2022-08-01T05:56:41;94588.78;;;21.99;92.05
23164;BME280;31429;42.674;23.350;2022-08-01T05:57:42;94621.78;;;22.28;94.55
23164;BME280;31429;42.674;23.350;2022-08-01T05:58:43;94482.22;;;21.05;100.00
23164;BME280;31429;42.674;23.350;2022-08-01T05:59:43;94590.38;;;21.69;98.35
23164;BME280;31429;42.674;23.350;2022-08-01T06:00:44;94623.38;;;22.10;100.00
23164;BME280;31429;42.674;23.350;2022-08-01T06:01:45;94627.00;;;22.28;96.93
23164;BME280;31429;42.674;23.350;2022-08-01T06:02:45;94621.88;;;22.48;81.64
23164;BME280;31429;42.674;23.350;2022-08-01T06:03:46;94627.19;;;22.46;79.55
23164;BME280;31429;42.674;23.350;2022-08-01T06:04:47;94623.94;;;22.54;90.08
23164;BME280;31429;42.674;23.350;2022-08-01T06:05:47;94623.72;;;22.66;74.04
23164;BME280;31429;42.674;23.350;2022-08-01T06:06:49;94625.66;;;22.74;74.31
23164;BME280;31429;42.674;23.350;2022-08-01T06:07:50;94612.09;;;22.80;74.50
23164;BME280;31429;42.674;23.350;2022-08-01T06:08:51;94614.06;;;22.57;93.38
23164;BME280;31429;42.674;23.350;2022-08-01T06:09:52;94625.94;;;22.41;95.60
23164;BME280;31429;42.674;23.350;2022-08-01T06:10:52;94624.38;;;22.59;79.99
23164;BME280;31429;42.674;23.350;2022-08-01T06:11:53;94622.78;;;22.77;75.68
23164;BME280;31429;42.674;23.350;2022-08-01T06:12:54;94617.34;;;22.59;73.45
23164;BME280;31429;42.674;23.350;2022-08-01T06:13:54;94606.31;;;22.67;74.03
23164;BME280;31429;42.674;23.350;2022-08-01T06:14:55;94612.78;;;22.72;77.60
23164;BME280;31429;42.674;23.350;2022-08-01T06:15:56;94620.50;;;22.93;82.35
23164;BME280;31429;42.674;23.350;2022-08-01T06:16:56;94610.72;;;22.85;82.42
23164;BME280;31429;42.674;23.350;2022-08-01T06:17:57;94572.59;;;22.35;85.09
23164;BME280;31429;42.674;23.350;2022-08-01T06:18:58;94616.16;;;22.63;92.15
23164;BME280;31429;42.674;23.350;2022-08-01T06:19:59;94630.13;;;22.62;77.69
23164;BME280;31429;42.674;23.350;2022-08-01T06:21:00;94614.25;;;22.65;70.21
23164;BME280;31429;42.674;23.350;2022-08-01T06:22:02;94626.13;;;22.98;69.69
23164;BME280;31429;42.674;23.350;2022-08-01T06:23:02;94597.72;;;22.95;76.18
23164;BME280;31429;42.674;23.350;2022-08-01T06:24:04;94619.56;;;23.04;69.48
23164;BME280;31429;42.674;23.350;2022-08-01T06:25:06;94590.88;;;22.45;79.58
23164;BME280;31429;42.674;23.350;2022-08-01T06:26:07;94637.38;;;22.49;88.81
23164;BME280;31429;42.674;23.350;2022-08-01T06:27:08;94626.28;;;22.57;87.02
23164;BME280;31429;42.674;23.350;2022-08-01T06:28:09;94628.84;;;22.77;88.86
23164;BME280;31429;42.674;23.350;2022-08-01T06:29:09;94592.31;;;22.68;83.56
23164;BME280;31429;42.674;23.350;2022-08-01T06:30:11;94623.66;;;22.87;72.32
23164;BME280;31429;42.674;23.350;2022-08-01T06:31:11;94628.19;;;23.04;74.13
23164;BME280;31429;42.674;23.350;2022-08-01T06:32:13;94604.88;;;22.63;76.63
23164;BME280;31429;42.674;23.350;2022-08-01T06:33:14;94620.69;;;22.61;71.06
23164;BME280;31429;42.674;23.350;2022-08-01T06:34:15;94583.69;;;22.37;82.21
23164;BME280;31429;42.674;23.350;2022-08-01T06:35:16;94618.81;;;22.82;78.29
23164;BME280;31429;42.674;23.350;2022-08-01T06:36:16;94620.31;;;22.85;67.65
23164;BME280;31429;42.674;23.350;2022-08-01T06:37:18;94627.63;;;23.10;69.87
23164;BME280;31429;42.674;23.350;2022-08-01T06:38:19;94627.81;;;23.18;63.18
23164;BME280;31429;42.674;23.350;2022-08-01T06:39:20;94626.84;;;23.29;68.46
23164;BME280;31429;42.674;23.350;2022-08-01T06:40:21;94620.66;;;23.20;59.77
23164;BME280;31429;42.674;23.350;2022-08-01T06:41:21;94622.97;;;23.33;64.35
23164;BME280;31429;42.674;23.350;2022-08-01T06:42:22;94620.97;;;23.46;61.21
23164;BME280;31429;42.674;23.350;2022-08-01T06:43:24;94618.06;;;23.49;65.25
23164;BME280;31429;42.674;23.350;2022-08-01T06:44:24;94500.28;;;22.86;59.13
23164;BME280;31429;42.674;23.350;2022-08-01T06:45:25;94616.25;;;23.59;58.53
23164;BME280;31429;42.674;23.350;2022-08-01T06:46:27;94603.75;;;23.53;55.82
23164;BME280;31429;42.674;23.350;2022-08-01T06:47:27;94615.44;;;23.59;55.30
23164;BME280;31429;42.674;23.350;2022-08-01T06:48:28;94543.75;;;23.34;59.25
23164;BME280;31429;42.674;23.350;2022-08-01T06:49:29;94618.16;;;23.76;60.69
23164;BME280;31429;42.674;23.350;2022-08-01T06:50:29;94616.00;;;23.43;61.17
23164;BME280;31429;42.674;23.350;2022-08-01T06:51:30;94611.84;;;23.31;59.48
23164;BME280;31429;42.674;23.350;2022-08-01T06:53:33;94608.28;;;23.80;63.21
23164;BME280;31429;42.674;23.350;2022-08-01T06:54:34;94595.59;;;23.94;60.19
23164;BME280;31429;42.674;23.350;2022-08-01T06:55:34;94584.88;;;23.88;65.99
23164;BME280;31429;42.674;23.350;2022-08-01T06:56:35;94593.94;;;23.93;59.81
23164;BME280;31429;42.674;23.350;2022-08-01T06:57:36;94600.94;;;23.93;63.35
23164;BME280;31429;42.674;23.350;2022-08-01T06:58:37;94595.03;;;23.91;57.01
23164;BME280;31429;42.674;23.350;2022-08-01T06:59:38;94601.66;;;23.85;59.62
23164;BME280;31429;42.674;23.350;2022-08-01T07:00:38;94594.88;;;24.02;57.36
23164;BME280;31429;42.674;23.350;2022-08-01T07:01:39;94592.78;;;23.59;64.76
23164;BME280;31429;42.674;23.350;2022-08-01T07:02:40;94606.09;;;23.75;74.88
23164;BME280;31429;42.674;23.350;2022-08-01T07:03:41;94575.44;;;23.68;61.85
23164;BME280;31429;42.674;23.350;2022-08-01T07:04:42;94500.34;;;23.33;57.25
23164;BME280;31429;42.674;23.350;2022-08-01T07:05:42;94592.88;;;23.86;59.42
23164;BME280;31429;42.674;23.350;2022-08-01T07:06:43;94584.75;;;23.89;57.28
23164;BME280;31429;42.674;23.350;2022-08-01T07:07:45;94592.41;;;24.00;57.83
23164;BME280;31429;42.674;23.350;2022-08-01T07:08:46;94592.75;;;24.25;59.07
23164;BME280;31429;42.674;23.350;2022-08-01T07:09:46;94584.50;;;24.29;69.56
23164;BME280;31429;42.674;23.350;2022-08-01T07:10:47;94572.72;;;24.06;59.92
23164;BME280;31429;42.674;23.350;2022-08-01T07:11:48;94588.44;;;24.33;56.77
23164;BME280;31429;42.674;23.350;2022-08-01T07:12:48;94564.34;;;23.66;56.53
23164;BME280;31429;42.674;23.350;2022-08-01T07:13:49;94598.03;;;24.06;56.16
23164;BME280;31429;42.674;23.350;2022-08-01T07:14:50;94571.44;;;24.29;57.43
23164;BME280;31429;42.674;23.350;2022-08-01T07:15:51;94583.94;;;24.53;61.42
23164;BME280;31429;42.674;23.350;2022-08-01T07:16:52;94584.41;;;24.48;63.90
23164;BME280;31429;42.674;23.350;2022-08-01T07:17:53;94550.22;;;23.95;68.26
23164;BME280;31429;42.674;23.350;2022-08-01T07:18:53;94593.47;;;24.17;65.21
23164;BME280;31429;42.674;23.350;2022-08-01T07:19:54;94585.31;;;24.30;60.23
23164;BME280;31429;42.674;23.350;2022-08-01T07:20:55;94586.50;;;24.35;66.58
23164;BME280;31429;42.674;23.350;2022-08-01T07:21:55;94582.97;;;24.27;58.29
23164;BME280;31429;42.674;23.350;2022-08-01T07:22:57;94583.03;;;24.08;63.37
23164;BME280;31429;42.674;23.350;2022-08-01T07:23:58;94560.75;;;24.13;66.52
23164;BME280;31429;42.674;23.350;2022-08-01T07:24:59;94514.28;;;23.80;61.54
23164;BME280;31429;42.674;23.350;2022-08-01T07:25:59;94602.25;;;24.53;61.88
23164;BME280;31429;42.674;23.350;2022-08-01T07:27:01;94557.53;;;24.29;65.81
23164;BME280;31429;42.674;23.350;2022-08-01T07:28:02;94594.41;;;24.26;64.48
23164;BME280;31429;42.674;23.350;2022-08-01T07:29:03;94597.41;;;24.31;59.88
23164;BME280;31429;42.674;23.350;2022-08-01T07:30:05;94583.88;;;24.18;68.00
23164;BME280;31429;42.674;23.350;2022-08-01T07:31:06;94586.66;;;24.34;57.86
23164;BME280;31429;42.674;23.350;2022-08-01T07:32:07;94596.06;;;24.54;62.52
23164;BME280;31429;42.674;23.350;2022-08-01T07:33:07;94589.72;;;24.56;60.99
23164;BME280;31429;42.674;23.350;2022-08-01T07:34:08;94592.91;;;24.50;58.18
23164;BME280;31429;42.674;23.350;2022-08-01T07:35:09;94572.47;;;23.99;58.81
23164;BME280;31429;42.674;23.350;2022-08-01T07:36:10;94533.56;;;24.06;59.44
23164;BME280;31429;42.674;23.350;2022-08-01T07:37:11;94596.19;;;24.52;55.42
23164;BME280;31429;42.674;23.350;2022-08-01T07:38:13;94589.06;;;24.54;52.86
23164;BME280;31429;42.674;23.350;2022-08-01T07:39:15;94523.47;;;23.84;56.74
23164;BME280;31429;42.674;23.350;2022-08-01T07:40:17;94593.34;;;24.09;58.19
23164;BME280;31429;42.674;23.350;2022-08-01T07:41:18;94600.75;;;24.23;55.87
23164;BME280;31429;42.674;23.350;2022-08-01T07:42:19;94564.94;;;23.96;55.11
23164;BME280;31429;42.674;23.350;2022-08-01T07:43:19;94596.88;;;24.27;64.34
23164;BME280;31429;42.674;23.350;2022-08-01T07:44:20;94596.94;;;24.45;58.36
23164;BME280;31429;42.674;23.350;2022-08-01T07:45:21;94566.78;;;24.23;61.22
23164;BME280;31429;42.674;23.350;2022-08-01T07:46:22;94417.91;;;23.03;63.31
23164;BME280;31429;42.674;23.350;2022-08-01T07:47:24;94574.66;;;24.14;60.36
23164;BME280;31429;42.674;23.350;2022-08-01T07:48:24;94596.19;;;24.25;55.74
23164;BME280;31429;42.674;23.350;2022-08-01T07:49:26;94602.44;;;24.42;54.40
23164;BME280;31429;42.674;23.350;2022-08-01T07:50:26;94535.56;;;24.22;58.83
23164;BME280;31429;42.674;23.350;2022-08-01T07:51:27;94560.34;;;24.18;59.10
23164;BME280;31429;42.674;23.350;2022-08-01T07:52:27;94560.50;;;24.43;57.15
23164;BME280;31429;42.674;23.350;2022-08-01T07:53:30;94594.06;;;24.66;56.91
23164;BME280;31429;42.674;23.350;2022-08-01T07:54:30;94588.84;;;24.66;53.69
23164;BME280;31429;42.674;23.350;2022-08-01T07:55:31;94600.34;;;24.73;53.76
23164;BME280;31429;42.674;23.350;2022-08-01T07:56:32;94564.94;;;24.33;57.77
23164;BME280;31429;42.674;23.350;2022-08-01T07:57:32;94597.56;;;24.56;54.28
23164;BME280;31429;42.674;23.350;2022-08-01T07:58:33;94594.66;;;24.59;55.09
23164;BME280;31429;42.674;23.350;2022-08-01T07:59:34;94560.59;;;24.51;66.34
23164;BME280;31429;42.674;23.350;2022-08-01T08:00:35;94577.56;;;24.11;56.18
23164;BME280;31429;42.674;23.350;2022-08-01T08:01:36;94598.06;;;24.33;61.31
23164;BME280;31429;42.674;23.350;2022-08-01T08:02:37;94599.59;;;24.63;60.00
23164;BME280;31429;42.674;23.350;2022-08-01T08:03:37;94604.66;;;24.64;57.60
23164;BME280;31429;42.674;23.350;2022-08-01T08:04:38;94601.47;;;24.70;53.04
23164;BME280;31429;42.674;23.350;2022-08-01T08:05:39;94593.16;;;24.57;53.12
23164;BME280;31429;42.674;23.350;2022-08-01T08:06:40;94610.50;;;24.85;57.11
23164;BME280;31429;42.674;23.350;2022-08-01T08:07:41;94606.31;;;24.92;56.13
23164;BME280;31429;42.674;23.350;2022-08-01T08:08:43;94599.91;;;25.04;55.08
23164;BME280;31429;42.674;23.350;2022-08-01T08:09:44;94549.25;;;24.78;53.96
23164;BME280;31429;42.674;23.350;2022-08-01T08:10:45;94618.56;;;24.92;54.24
23164;BME280;31429;42.674;23.350;2022-08-01T08:11:46;94602.75;;;24.93;53.83
23164;BME280;31429;42.674;23.350;2022-08-01T08:12:47;94545.16;;;24.31;57.87
23164;BME280;31429;42.674;23.350;2022-08-01T08:13:48;94603.25;;;24.70;58.15
23164;BME280;31429;42.674;23.350;2022-08-01T08:14:49;94605.66;;;24.90;57.59
23164;BME280;31429;42.674;23.350;2022-08-01T08:15:50;94579.94;;;24.86;55.36
23164;BME280;31429;42.674;23.350;2022-08-01T08:16:51;94554.53;;;24.96;56.41
23164;BME280;31429;42.674;23.350;2022-08-01T08:17:52;94566.44;;;25.08;55.79
23164;BME280;31429;42.674;23.350;2022-08-01T08:18:52;94591.69;;;25.17;55.57
23164;BME280;31429;42.674;23.350;2022-08-01T08:19:53;94561.78;;;24.84;54.29
23164;BME280;31429;42.674;23.350;2022-08-01T08:20:54;94589.75;;;25.19;54.70
23164;BME280;31429;42.674;23.350;2022-08-01T08:21:55;94598.03;;;25.14;53.25